Time;durP1;ratioP1;P1;durP2;ratioP2;P2;SDS_P1;SDS_P2;PMS_P1;PMS_P2;Temp;Humidity;BMP_temperature;BMP_pressure;BME280_temperature;BME280_humidity;BME280_pressure;Samples;Min_cycle;Max_cycle;Signal;HPM_P1;HPM_P2
2021/08/24 00:01:12;;;;;;;1.20;1.10;;;;;;;;;;5022903;28;20049;-54
2021/08/24 00:03:39;;;;;;;1.10;1.10;;;;;;;;;;5034222;28;20045;-54
2021/08/24 00:06:06;;;;;;;1.55;1.17;;;;;;;;;;5032803;28;20489;-54
2021/08/24 00:08:34;;;;;;;1.20;1.00;;;;;;;;;;5033610;28;20077;-54
2021/08/24 00:11:01;;;;;;;2.22;1.75;;;;;;;;;;5032477;28;20124;-52
2021/08/24 00:13:28;;;;;;;2.92;1.05;;;;;;;;;;5028863;28;20034;-54
2021/08/24 00:15:56;;;;;;;2.78;1.02;;;;;;;;;;5029102;28;20088;-53
2021/08/24 00:18:23;;;;;;;1.17;1.17;;;;;;;;;;5023990;28;20030;-53
2021/08/24 00:20:51;;;;;;;1.00;1.00;;;;;;;;;;5032516;28;20068;-53
2021/08/24 00:23:20;;;;;;;1.30;1.00;;;;;;;;;;5027887;28;20034;-53
2021/08/24 00:25:50;;;;;;;3.90;1.00;;;;;;;;;;5024330;28;20064;-54
2021/08/24 00:28:17;;;;;;;1.40;1.00;;;;;;;;;;5020269;28;20041;-54
2021/08/24 00:30:44;;;;;;;1.52;1.10;;;;;;;;;;5027592;28;20049;-54
2021/08/24 00:33:11;;;;;;;1.98;1.50;;;;;;;;;;5028804;28;20042;-54
2021/08/24 00:35:39;;;;;;;1.20;1.10;;;;;;;;;;5030076;28;20220;-54
2021/08/24 00:38:07;;;;;;;1.52;1.27;;;;;;;;;;5031393;28;20029;-54
2021/08/24 00:40:33;;;;;;;1.10;1.10;;;;;;;;;;5027391;28;20029;-54
2021/08/24 00:43:00;;;;;;;1.30;1.20;;;;;;;;;;5030106;28;20523;-54
2021/08/24 00:45:27;;;;;;;0.90;0.90;;;;;;;;;;5030755;28;20046;-53
2021/08/24 00:47:54;;;;;;;1.05;1.00;;;;;;;;;;5033650;28;20128;-54
2021/08/24 00:50:24;;;;;;;1.75;1.05;;;;;;;;;;5033073;28;20661;-54
2021/08/24 00:52:51;;;;;;;1.30;1.20;;;;;;;;;;5032094;28;20033;-54
2021/08/24 00:55:19;;;;;;;1.60;1.50;;;;;;;;;;5031771;28;20132;-54
2021/08/24 00:57:52;;;;;;;1.40;1.30;;;;;;;;;;5031188;28;20076;-53
2021/08/24 01:00:19;;;;;;;1.00;0.90;;;;;;;;;;5030098;28;20048;-52
2021/08/24 01:02:47;;;;;;;2.40;1.52;;;;;;;;;;5024468;28;20064;-52
2021/08/24 01:05:14;;;;;;;1.50;1.40;;;;;;;;;;5026813;28;20048;-54
2021/08/24 01:07:53;;;;;;;1.38;1.35;;;;;;;;;;5031165;28;20065;-54
2021/08/24 01:10:34;;;;;;;1.35;1.25;;;;;;;;;;5029756;28;20128;-54
2021/08/24 01:13:13;;;;;;;2.55;1.10;;;;;;;;;;5029796;28;20112;-52
2021/08/24 01:15:52;;;;;;;1.40;1.30;;;;;;;;;;5030043;28;20033;-53
2021/08/24 01:18:41;;;;;;;1.20;1.00;;;;;;;;;;5030712;28;20289;-53
2021/08/24 01:21:27;;;;;;;2.25;1.30;;;;;;;;;;5025038;28;20041;-53
2021/08/24 01:24:05;;;;;;;2.08;1.13;;;;;;;;;;5029492;28;20084;-54
2021/08/24 01:26:42;;;;;;;1.73;1.60;;;;;;;;;;5030377;28;20055;-52
2021/08/24 01:29:21;;;;;;;1.67;1.35;;;;;;;;;;5027701;28;20100;-53
2021/08/24 01:32:04;;;;;;;2.25;1.17;;;;;;;;;;5026422;28;20044;-54
2021/08/24 01:34:42;;;;;;;3.55;2.03;;;;;;;;;;5020743;28;20093;-53
2021/08/24 01:37:12;;;;;;;2.05;1.00;;;;;;;;;;5032090;28;20075;-54
2021/08/24 01:39:45;;;;;;;2.53;1.40;;;;;;;;;;5029726;28;20068;-54
2021/08/24 01:42:15;;;;;;;1.23;1.13;;;;;;;;;;5030240;28;20038;-54
2021/08/24 01:44:57;;;;;;;2.90;1.20;;;;;;;;;;5020403;28;20069;-53
2021/08/24 01:47:38;;;;;;;3.35;1.33;;;;;;;;;;5031103;28;20038;-52
2021/08/24 01:50:11;;;;;;;2.03;1.17;;;;;;;;;;5030653;28;20055;-54
2021/08/24 01:52:41;;;;;;;1.75;1.50;;;;;;;;;;5031149;28;20041;-54
2021/08/24 01:55:13;;;;;;;3.90;1.42;;;;;;;;;;5029917;28;20057;-54
2021/08/24 01:57:58;;;;;;;1.52;1.27;;;;;;;;;;5028893;28;20048;-54
2021/08/24 02:00:25;;;;;;;1.33;1.17;;;;;;;;;;5031838;28;20113;-54
2021/08/24 02:03:00;;;;;;;1.10;1.10;;;;;;;;;;5021471;28;20052;-54
2021/08/24 02:05:31;;;;;;;3.30;1.30;;;;;;;;;;5020017;28;20045;-54
2021/08/24 02:08:04;;;;;;;1.60;1.35;;;;;;;;;;5029619;28;20056;-54
2021/08/24 02:10:33;;;;;;;1.02;1.02;;;;;;;;;;5015843;28;20080;-53
2021/08/24 02:13:00;;;;;;;2.67;1.20;;;;;;;;;;5031095;28;20446;-54
2021/08/24 02:15:29;;;;;;;1.05;1.02;;;;;;;;;;5026843;28;20041;-54
2021/08/24 02:17:57;;;;;;;1.45;1.35;;;;;;;;;;5023305;28;20033;-53
2021/08/24 02:20:25;;;;;;;1.35;1.20;;;;;;;;;;5024600;28;20034;-54
2021/08/24 02:22:55;;;;;;;1.35;1.25;;;;;;;;;;5019050;28;20065;-54
2021/08/24 02:25:28;;;;;;;1.00;1.00;;;;;;;;;;5028174;28;20077;-52
2021/08/24 02:28:07;;;;;;;3.55;1.40;;;;;;;;;;5029770;28;20397;-54
2021/08/24 02:30:35;;;;;;;1.52;1.45;;;;;;;;;;5031132;28;20045;-54
2021/08/24 02:33:03;;;;;;;1.52;1.42;;;;;;;;;;5029627;28;20428;-53
2021/08/24 02:35:30;;;;;;;1.17;1.17;;;;;;;;;;5031052;28;20089;-53
2021/08/24 02:38:04;;;;;;;1.40;1.30;;;;;;;;;;5022572;28;20513;-53
2021/08/24 02:40:42;;;;;;;1.30;1.30;;;;;;;;;;5024933;28;20030;-54
2021/08/24 02:43:15;;;;;;;2.90;1.40;;;;;;;;;;5019691;28;20104;-54
2021/08/24 02:45:45;;;;;;;1.00;1.00;;;;;;;;;;5031401;28;20049;-53
2021/08/24 02:48:13;;;;;;;3.95;1.75;;;;;;;;;;5030133;28;20041;-54
2021/08/24 02:50:41;;;;;;;1.30;1.20;;;;;;;;;;5018192;28;20111;-54
2021/08/24 02:53:09;;;;;;;2.17;1.20;;;;;;;;;;5028472;28;20046;-54
2021/08/24 02:55:36;;;;;;;1.50;1.40;;;;;;;;;;5028260;28;20038;-54
2021/08/24 02:58:03;;;;;;;2.13;1.77;;;;;;;;;;5023697;28;20173;-54
2021/08/24 03:00:30;;;;;;;2.10;1.70;;;;;;;;;;5028758;28;20044;-54
2021/08/24 03:02:57;;;;;;;1.65;1.25;;;;;;;;;;5022005;28;20045;-54
2021/08/24 03:05:24;;;;;;;1.25;1.25;;;;;;;;;;5020473;28;20470;-54
2021/08/24 03:07:51;;;;;;;1.45;1.42;;;;;;;;;;5026107;28;20405;-54
2021/08/24 03:10:20;;;;;;;1.35;1.25;;;;;;;;;;5030687;28;20061;-53
2021/08/24 03:12:54;;;;;;;1.90;1.45;;;;;;;;;;5029974;28;20095;-54
2021/08/24 03:15:24;;;;;;;1.75;1.20;;;;;;;;;;5029307;28;20042;-54
2021/08/24 03:17:57;;;;;;;1.63;1.45;;;;;;;;;;5027865;28;20095;-54
2021/08/24 03:20:28;;;;;;;1.65;1.23;;;;;;;;;;5028346;28;20052;-54
2021/08/24 03:22:55;;;;;;;1.75;1.20;;;;;;;;;;5028706;28;20096;-54
2021/08/24 03:25:22;;;;;;;1.35;1.25;;;;;;;;;;5030805;28;20065;-54
2021/08/24 03:27:52;;;;;;;1.67;1.58;;;;;;;;;;5028748;28;20034;-54
2021/08/24 03:30:20;;;;;;;1.90;1.80;;;;;;;;;;5028356;28;20073;-54
2021/08/24 03:32:47;;;;;;;1.63;1.30;;;;;;;;;;5030077;28;20115;-54
2021/08/24 03:35:15;;;;;;;1.55;1.20;;;;;;;;;;5023236;28;20041;-54
2021/08/24 03:37:43;;;;;;;1.17;1.17;;;;;;;;;;5029545;28;20502;-54
2021/08/24 03:40:11;;;;;;;1.65;1.10;;;;;;;;;;5029665;28;20104;-53
2021/08/24 03:42:38;;;;;;;1.50;1.40;;;;;;;;;;5030485;28;20046;-54
2021/08/24 03:45:06;;;;;;;3.40;1.58;;;;;;;;;;5024351;28;20045;-54
2021/08/24 03:47:32;;;;;;;1.80;1.70;;;;;;;;;;5019017;28;20064;-54
2021/08/24 03:49:59;;;;;;;1.95;1.42;;;;;;;;;;5023465;28;20225;-54
2021/08/24 03:52:26;;;;;;;1.48;1.38;;;;;;;;;;5025112;28;20599;-54
2021/08/24 03:54:53;;;;;;;1.27;1.27;;;;;;;;;;5020876;28;20037;-54
2021/08/24 03:57:20;;;;;;;2.65;1.45;;;;;;;;;;5029828;28;20045;-54
2021/08/24 03:59:47;;;;;;;3.40;1.70;;;;;;;;;;5029127;28;20033;-54
2021/08/24 04:02:15;;;;;;;1.70;1.60;;;;;;;;;;5027001;28;20481;-54
2021/08/24 04:04:41;;;;;;;1.33;1.23;;;;;;;;;;5028914;28;20053;-54
2021/08/24 04:07:09;;;;;;;1.83;1.70;;;;;;;;;;5028546;28;20104;-54
2021/08/24 04:09:35;;;;;;;1.50;1.40;;;;;;;;;;5029977;28;20076;-55
2021/08/24 04:12:02;;;;;;;1.80;1.77;;;;;;;;;;5028033;28;20048;-54
2021/08/24 04:14:29;;;;;;;1.92;1.83;;;;;;;;;;5033480;28;20440;-55
2021/08/24 04:16:56;;;;;;;1.75;1.65;;;;;;;;;;5029423;28;20057;-55
2021/08/24 04:19:23;;;;;;;3.08;1.30;;;;;;;;;;5023170;28;20092;-53
2021/08/24 04:21:49;;;;;;;1.60;1.50;;;;;;;;;;5033533;28;20125;-54
2021/08/24 04:24:16;;;;;;;1.73;1.65;;;;;;;;;;5030346;28;20540;-54
2021/08/24 04:26:43;;;;;;;1.98;1.77;;;;;;;;;;5034406;28;20507;-54
2021/08/24 04:29:10;;;;;;;1.83;1.73;;;;;;;;;;5029278;28;20076;-54
2021/08/24 04:31:38;;;;;;;1.40;1.30;;;;;;;;;;5025148;28;20469;-55
2021/08/24 04:34:05;;;;;;;1.50;1.40;;;;;;;;;;5030000;28;20041;-54
2021/08/24 04:36:35;;;;;;;1.55;1.45;;;;;;;;;;5031277;28;20129;-55
2021/08/24 04:39:02;;;;;;;1.60;1.50;;;;;;;;;;5033311;28;20037;-55
2021/08/24 04:41:31;;;;;;;1.65;1.58;;;;;;;;;;5028229;28;20044;-55
2021/08/24 04:43:58;;;;;;;1.92;1.83;;;;;;;;;;5032211;28;20045;-55
2021/08/24 04:46:25;;;;;;;2.10;2.00;;;;;;;;;;5028656;28;20115;-55
2021/08/24 04:48:52;;;;;;;3.58;2.67;;;;;;;;;;5027330;28;20100;-54
2021/08/24 04:51:18;;;;;;;2.17;1.60;;;;;;;;;;5021851;28;20045;-54
2021/08/24 04:53:45;;;;;;;3.17;2.13;;;;;;;;;;5026692;28;20042;-53
2021/08/24 04:56:12;;;;;;;1.65;1.55;;;;;;;;;;5022600;28;20029;-54
2021/08/24 04:58:39;;;;;;;1.80;1.70;;;;;;;;;;5024366;28;20033;-53
2021/08/24 05:01:06;;;;;;;3.75;1.95;;;;;;;;;;5032185;28;20034;-54
2021/08/24 05:03:33;;;;;;;1.92;1.80;;;;;;;;;;5032965;28;20497;-55
2021/08/24 05:06:00;;;;;;;1.70;1.60;;;;;;;;;;5032172;28;20508;-54
2021/08/24 05:08:27;;;;;;;2.05;1.80;;;;;;;;;;5033614;28;20048;-53
2021/08/24 05:10:54;;;;;;;3.55;2.60;;;;;;;;;;5017470;28;20054;-55
2021/08/24 05:13:20;;;;;;;1.92;1.83;;;;;;;;;;5026781;28;20048;-54
2021/08/24 05:15:47;;;;;;;2.35;2.05;;;;;;;;;;5012836;28;20049;-54
2021/08/24 05:18:14;;;;;;;2.28;2.10;;;;;;;;;;5033568;28;20438;-55
2021/08/24 05:20:41;;;;;;;1.58;1.40;;;;;;;;;;5023674;28;20454;-54
2021/08/24 05:23:08;;;;;;;1.55;1.35;;;;;;;;;;5030671;28;20045;-55
2021/08/24 05:25:34;;;;;;;1.73;1.63;;;;;;;;;;5030486;28;20099;-54
2021/08/24 05:28:02;;;;;;;6.90;2.60;;;;;;;;;;5029560;28;20045;-55
2021/08/24 05:30:29;;;;;;;1.77;1.30;;;;;;;;;;5030067;28;20049;-55
2021/08/24 05:32:55;;;;;;;1.92;1.85;;;;;;;;;;5029843;28;20061;-55
2021/08/24 05:35:22;;;;;;;3.05;2.28;;;;;;;;;;5022188;28;20076;-55
2021/08/24 05:37:49;;;;;;;1.17;1.08;;;;;;;;;;5028539;28;20060;-55
2021/08/24 05:40:17;;;;;;;1.40;1.40;;;;;;;;;;5029657;28;20401;-55
2021/08/24 05:42:44;;;;;;;2.78;1.40;;;;;;;;;;5030086;28;20041;-56
2021/08/24 05:45:11;;;;;;;2.85;1.20;;;;;;;;;;5028462;28;20041;-55
2021/08/24 05:47:38;;;;;;;3.38;1.85;;;;;;;;;;5029518;28;20052;-55
2021/08/24 05:50:06;;;;;;;6.32;2.08;;;;;;;;;;5031025;28;20080;-55
2021/08/24 05:52:32;;;;;;;4.65;1.85;;;;;;;;;;5020857;28;20049;-56
2021/08/24 05:54:59;;;;;;;3.65;1.80;;;;;;;;;;5021244;28;20084;-56
2021/08/24 05:57:26;;;;;;;3.97;1.58;;;;;;;;;;5025303;28;20068;-55
2021/08/24 05:59:53;;;;;;;1.10;1.10;;;;;;;;;;5031326;28;20052;-55
2021/08/24 06:02:20;;;;;;;1.60;1.38;;;;;;;;;;5031293;28;20037;-55
2021/08/24 06:04:47;;;;;;;1.70;1.23;;;;;;;;;;5025988;28;20458;-56
2021/08/24 06:07:13;;;;;;;1.40;1.30;;;;;;;;;;5019361;28;20026;-55
2021/08/24 06:09:40;;;;;;;2.15;1.30;;;;;;;;;;5026544;28;20038;-55
2021/08/24 06:12:07;;;;;;;1.42;1.33;;;;;;;;;;5045656;28;20069;-55
2021/08/24 06:14:34;;;;;;;1.40;1.27;;;;;;;;;;5031283;28;20037;-55
2021/08/24 06:17:00;;;;;;;1.20;1.20;;;;;;;;;;5031040;28;20041;-55
2021/08/24 06:19:28;;;;;;;1.40;1.30;;;;;;;;;;5030097;28;20034;-55
2021/08/24 06:21:57;;;;;;;1.00;0.98;;;;;;;;;;5028697;28;20042;-55
2021/08/24 06:24:23;;;;;;;4.00;1.38;;;;;;;;;;5014408;28;20049;-55
2021/08/24 06:26:50;;;;;;;1.10;1.10;;;;;;;;;;5030566;28;20233;-56
2021/08/24 06:29:17;;;;;;;1.45;1.02;;;;;;;;;;5028987;28;20147;-55
2021/08/24 06:31:46;;;;;;;0.90;0.90;;;;;;;;;;5031495;28;20045;-55
2021/08/24 06:34:13;;;;;;;3.25;0.90;;;;;;;;;;5025716;28;20080;-56
2021/08/24 06:36:40;;;;;;;1.20;1.20;;;;;;;;;;5021891;28;20502;-55
2021/08/24 06:39:08;;;;;;;1.30;1.20;;;;;;;;;;5031659;28;20047;-56
2021/08/24 06:41:36;;;;;;;1.48;1.23;;;;;;;;;;5029123;28;20076;-55
2021/08/24 06:44:04;;;;;;;2.15;1.25;;;;;;;;;;5013170;28;20053;-55
2021/08/24 06:46:31;;;;;;;1.00;1.00;;;;;;;;;;5025202;28;20404;-56
2021/08/24 06:48:58;;;;;;;2.65;0.90;;;;;;;;;;5017584;28;20033;-56
2021/08/24 06:51:24;;;;;;;3.95;1.92;;;;;;;;;;5019793;28;20050;-55
2021/08/24 06:53:51;;;;;;;1.00;1.00;;;;;;;;;;5024994;28;20061;-56
2021/08/24 06:56:18;;;;;;;3.63;0.90;;;;;;;;;;5014871;28;20038;-56
2021/08/24 06:58:47;;;;;;;0.95;0.80;;;;;;;;;;5025282;28;20038;-56
2021/08/24 07:01:19;;;;;;;1.58;1.48;;;;;;;;;;5019479;28;20041;-56
2021/08/24 07:03:46;;;;;;;0.60;0.60;;;;;;;;;;5031241;28;20045;-56
2021/08/24 07:06:12;;;;;;;1.85;0.80;;;;;;;;;;5030015;28;20049;-56
2021/08/24 07:08:39;;;;;;;0.90;0.90;;;;;;;;;;5019840;28;20079;-56
2021/08/24 07:11:07;;;;;;;0.80;0.80;;;;;;;;;;5022989;28;20050;-55
2021/08/24 07:13:34;;;;;;;2.10;0.70;;;;;;;;;;5019956;28;20048;-56
2021/08/24 07:16:01;;;;;;;1.35;0.77;;;;;;;;;;5030503;28;20531;-56
2021/08/24 07:18:28;;;;;;;1.35;0.80;;;;;;;;;;5028996;28;20057;-56
2021/08/24 07:20:55;;;;;;;0.70;0.70;;;;;;;;;;5025221;28;20100;-56
2021/08/24 07:23:22;;;;;;;0.68;0.68;;;;;;;;;;5027278;28;20124;-55
2021/08/24 07:25:49;;;;;;;0.80;0.80;;;;;;;;;;5022696;28;20037;-56
2021/08/24 07:28:15;;;;;;;0.70;0.70;;;;;;;;;;5029818;28;20042;-56
2021/08/24 07:30:43;;;;;;;0.75;0.70;;;;;;;;;;5028332;28;20052;-56
2021/08/24 07:33:10;;;;;;;0.60;0.60;;;;;;;;;;5026191;28;20068;-55
2021/08/24 07:35:37;;;;;;;0.70;0.70;;;;;;;;;;5031394;28;20037;-56
2021/08/24 07:38:03;;;;;;;1.13;0.70;;;;;;;;;;5024051;28;20079;-56
2021/08/24 07:40:30;;;;;;;0.70;0.70;;;;;;;;;;5018713;28;20034;-55
2021/08/24 07:42:57;;;;;;;1.85;0.60;;;;;;;;;;5028484;28;20030;-55
2021/08/24 07:45:24;;;;;;;0.60;0.60;;;;;;;;;;5029029;28;20072;-55
2021/08/24 07:47:51;;;;;;;0.90;0.68;;;;;;;;;;5033846;28;20477;-55
2021/08/24 07:50:18;;;;;;;0.60;0.60;;;;;;;;;;5032359;28;20385;-56
2021/08/24 07:52:45;;;;;;;0.70;0.70;;;;;;;;;;5033853;28;20084;-56
2021/08/24 07:55:12;;;;;;;0.60;0.60;;;;;;;;;;5031225;28;20156;-54
2021/08/24 07:57:39;;;;;;;0.60;0.60;;;;;;;;;;5019591;28;20091;-55
2021/08/24 08:00:06;;;;;;;4.00;0.98;;;;;;;;;;5034977;28;20124;-56
2021/08/24 08:02:32;;;;;;;0.60;0.60;;;;;;;;;;5030082;28;20034;-56
2021/08/24 08:05:02;;;;;;;0.50;0.50;;;;;;;;;;5031243;28;20076;-55
2021/08/24 08:07:29;;;;;;;0.60;0.60;;;;;;;;;;5034261;28;20474;-55
2021/08/24 08:09:56;;;;;;;1.40;0.50;;;;;;;;;;5032090;28;20095;-56
2021/08/24 08:12:22;;;;;;;0.60;0.60;;;;;;;;;;5033301;28;20045;-56
2021/08/24 08:14:49;;;;;;;0.70;0.70;;;;;;;;;;5032075;28;20068;-56
2021/08/24 08:17:16;;;;;;;0.50;0.50;;;;;;;;;;5032580;28;20113;-56
2021/08/24 08:19:43;;;;;;;0.50;0.50;;;;;;;;;;5032276;28;20037;-55
2021/08/24 08:22:10;;;;;;;0.60;0.60;;;;;;;;;;5029002;28;20037;-56
2021/08/24 08:24:37;;;;;;;0.60;0.60;;;;;;;;;;5032985;28;20094;-54
2021/08/24 08:27:04;;;;;;;1.55;0.57;;;;;;;;;;5032601;28;20052;-56
2021/08/24 08:29:31;;;;;;;0.60;0.60;;;;;;;;;;5031093;28;20065;-55
2021/08/24 08:32:01;;;;;;;0.60;0.60;;;;;;;;;;5033450;28;20049;-55
2021/08/24 08:34:27;;;;;;;0.77;0.52;;;;;;;;;;5032580;28;20033;-56
2021/08/24 08:36:54;;;;;;;0.60;0.60;;;;;;;;;;5029153;28;20453;-56
2021/08/24 08:39:21;;;;;;;0.50;0.50;;;;;;;;;;5028327;28;20663;-56
2021/08/24 08:42:06;;;;;;;2.25;0.60;;;;;;;;;;5032355;28;20036;-56
2021/08/24 08:44:52;;;;;;;0.60;0.60;;;;;;;;;;5017898;28;20049;-54
2021/08/24 08:47:37;;;;;;;0.60;0.60;;;;;;;;;;5031849;28;20393;-55
2021/08/24 08:50:19;;;;;;;0.60;0.60;;;;;;;;;;5031174;28;20041;-56
2021/08/24 08:52:49;;;;;;;0.50;0.50;;;;;;;;;;5021225;28;20037;-56
2021/08/24 08:55:30;;;;;;;0.40;0.40;;;;;;;;;;5031914;28;20104;-55
2021/08/24 08:58:13;;;;;;;0.68;0.60;;;;;;;;;;5031075;28;20632;-56
2021/08/24 09:00:48;;;;;;;0.60;0.60;;;;;;;;;;5031568;28;20041;-55
2021/08/24 09:03:21;;;;;;;0.50;0.50;;;;;;;;;;5029588;28;20045;-55
2021/08/24 09:05:49;;;;;;;0.50;0.50;;;;;;;;;;5031503;28;20128;-55
2021/08/24 09:08:18;;;;;;;0.50;0.50;;;;;;;;;;5033684;28;20063;-55
2021/08/24 09:10:47;;;;;;;0.90;0.57;;;;;;;;;;5029666;28;20112;-56
2021/08/24 09:13:32;;;;;;;0.50;0.50;;;;;;;;;;5021631;28;20486;-56
2021/08/24 09:16:11;;;;;;;0.50;0.50;;;;;;;;;;5031183;28;20049;-55
2021/08/24 09:18:44;;;;;;;0.98;0.45;;;;;;;;;;5029703;28;20160;-57
2021/08/24 09:21:22;;;;;;;0.40;0.40;;;;;;;;;;5017420;28;20422;-56
2021/08/24 09:23:50;;;;;;;0.55;0.45;;;;;;;;;;5030464;28;20049;-56
2021/08/24 09:26:29;;;;;;;0.80;0.50;;;;;;;;;;5031098;28;20036;-56
2021/08/24 09:28:56;;;;;;;0.40;0.40;;;;;;;;;;5032010;28;20037;-56
2021/08/24 09:31:23;;;;;;;0.50;0.50;;;;;;;;;;5030325;28;20041;-56
2021/08/24 09:33:50;;;;;;;0.50;0.50;;;;;;;;;;5014874;28;20037;-57
2021/08/24 09:36:17;;;;;;;0.40;0.40;;;;;;;;;;5033051;28;20112;-56
2021/08/24 09:38:46;;;;;;;0.40;0.40;;;;;;;;;;5029587;28;20052;-57
2021/08/24 09:41:21;;;;;;;0.40;0.40;;;;;;;;;;5026162;28;20545;-56
2021/08/24 09:43:48;;;;;;;1.38;0.40;;;;;;;;;;5029983;28;20037;-56
2021/08/24 09:46:17;;;;;;;0.45;0.45;;;;;;;;;;5030743;28;20124;-56
2021/08/24 09:48:45;;;;;;;0.40;0.40;;;;;;;;;;5032941;28;20053;-56
2021/08/24 09:51:22;;;;;;;0.50;0.50;;;;;;;;;;5029536;28;20043;-56
2021/08/24 09:53:53;;;;;;;0.50;0.50;;;;;;;;;;5026070;28;20046;-56
2021/08/24 09:56:22;;;;;;;0.50;0.50;;;;;;;;;;5020208;28;20041;-56
2021/08/24 09:58:48;;;;;;;0.40;0.40;;;;;;;;;;5027717;28;20069;-56
2021/08/24 10:01:16;;;;;;;0.50;0.50;;;;;;;;;;5039217;28;20067;-56
2021/08/24 10:03:47;;;;;;;0.60;0.60;;;;;;;;;;5025649;28;20756;-56
2021/08/24 10:06:25;;;;;;;0.50;0.50;;;;;;;;;;5029770;28;20437;-56
2021/08/24 10:08:55;;;;;;;0.47;0.47;;;;;;;;;;5031252;28;20301;-56
2021/08/24 10:11:23;;;;;;;0.40;0.40;;;;;;;;;;5021431;28;20041;-56
2021/08/24 10:13:51;;;;;;;0.40;0.40;;;;;;;;;;5026280;28;20351;-56
2021/08/24 10:16:26;;;;;;;0.40;0.40;;;;;;;;;;5030005;28;20044;-55
2021/08/24 10:19:13;;;;;;;3.20;0.70;;;;;;;;;;5027073;28;20041;-56
2021/08/24 10:21:51;;;;;;;0.45;0.45;;;;;;;;;;5032161;28;20498;-56
2021/08/24 10:24:32;;;;;;;0.40;0.40;;;;;;;;;;5025317;28;20464;-56
2021/08/24 10:27:01;;;;;;;0.40;0.40;;;;;;;;;;5020953;28;20038;-56
2021/08/24 10:29:30;;;;;;;0.40;0.40;;;;;;;;;;5030406;28;20041;-56
2021/08/24 10:32:04;;;;;;;0.40;0.40;;;;;;;;;;5027609;28;20099;-55
2021/08/24 10:34:41;;;;;;;0.43;0.43;;;;;;;;;;5030092;28;20600;-55
2021/08/24 10:37:16;;;;;;;0.40;0.40;;;;;;;;;;5025203;28;20044;-56
2021/08/24 10:39:42;;;;;;;0.40;0.40;;;;;;;;;;5025037;28;20029;-56
2021/08/24 10:42:16;;;;;;;0.40;0.40;;;;;;;;;;5024869;28;20355;-57
2021/08/24 10:44:43;;;;;;;;;;;;;;;;;;5028902;28;20064;-56
2021/08/24 10:47:33;;;;;;;1.15;1.15;;;;;;;;;;5026125;28;19925;-56
2021/08/24 10:50:00;;;;;;;0.30;0.30;;;;;;;;;;5032423;28;20100;-57
2021/08/24 10:52:45;;;;;;;0.30;0.30;;;;;;;;;;5029857;28;20585;-56
2021/08/24 10:55:23;;;;;;;0.65;0.30;;;;;;;;;;5022736;28;20116;-56
2021/08/24 10:57:56;;;;;;;0.50;0.50;;;;;;;;;;5025889;28;20536;-56
2021/08/24 11:00:22;;;;;;;1.55;0.30;;;;;;;;;;5028051;28;20041;-57
2021/08/24 11:02:59;;;;;;;1.05;0.30;;;;;;;;;;5019701;28;20038;-55
2021/08/24 11:05:36;;;;;;;0.47;0.40;;;;;;;;;;5025201;28;20033;-56
2021/08/24 11:08:21;;;;;;;0.30;0.30;;;;;;;;;;5019635;28;20083;-56
2021/08/24 11:10:57;;;;;;;0.30;0.30;;;;;;;;;;5030032;28;20084;-56
2021/08/24 11:13:42;;;;;;;0.30;0.30;;;;;;;;;;5028680;28;20436;-56
2021/08/24 11:16:31;;;;;;;0.40;0.40;;;;;;;;;;5029036;28;20037;-56
2021/08/24 11:19:18;;;;;;;1.05;0.93;;;;;;;;;;5029469;28;20069;-56
2021/08/24 11:22:07;;;;;;;0.30;0.30;;;;;;;;;;5030299;28;20111;-56
2021/08/24 11:24:57;;;;;;;0.40;0.40;;;;;;;;;;5030362;28;20045;-56
2021/08/24 11:27:47;;;;;;;0.30;0.30;;;;;;;;;;5033670;28;20128;-56
2021/08/24 11:30:19;;;;;;;0.30;0.30;;;;;;;;;;5036670;28;20600;-56
2021/08/24 11:32:46;;;;;;;;;;;;;;;;;;5034478;28;20508;-56
2021/08/24 11:35:21;;;;;;;0.30;0.30;;;;;;;;;;5025801;28;19968;-56
2021/08/24 11:37:50;;;;;;;0.30;0.30;;;;;;;;;;5033209;28;20030;-55
2021/08/24 11:40:21;;;;;;;0.30;0.30;;;;;;;;;;5031433;28;20099;-57
2021/08/24 11:42:51;;;;;;;0.30;0.30;;;;;;;;;;5034228;28;20436;-56
2021/08/24 11:45:25;;;;;;;0.30;0.30;;;;;;;;;;5031491;28;20033;-56
2021/08/24 11:48:00;;;;;;;0.30;0.30;;;;;;;;;;5034710;28;20074;-56
2021/08/24 11:50:43;;;;;;;0.32;0.32;;;;;;;;;;5032911;28;20038;-56
2021/08/24 11:53:31;;;;;;;0.20;0.20;;;;;;;;;;5031519;28;20041;-56
2021/08/24 11:55:59;;;;;;;0.30;0.30;;;;;;;;;;5026738;28;20034;-57
2021/08/24 11:58:35;;;;;;;0.30;0.30;;;;;;;;;;5034883;28;20041;-56
2021/08/24 12:01:04;;;;;;;0.30;0.30;;;;;;;;;;5031010;28;20164;-56
2021/08/24 12:03:34;;;;;;;0.30;0.30;;;;;;;;;;5034812;28;20069;-56
2021/08/24 12:06:05;;;;;;;0.30;0.30;;;;;;;;;;5030361;28;20041;-57
2021/08/24 12:08:34;;;;;;;0.30;0.30;;;;;;;;;;5032240;28;20482;-56
2021/08/24 12:11:06;;;;;;;0.30;0.30;;;;;;;;;;5033916;28;20489;-57
2021/08/24 12:13:33;;;;;;;0.35;0.30;;;;;;;;;;5031888;28;20457;-56
2021/08/24 12:16:16;;;;;;;0.30;0.30;;;;;;;;;;5032563;28;20072;-57
2021/08/24 12:18:43;;;;;;;0.40;0.40;;;;;;;;;;5033067;28;20030;-56
2021/08/24 12:21:23;;;;;;;0.57;0.30;;;;;;;;;;5033552;28;20034;-56
2021/08/24 12:23:50;;;;;;;0.45;0.30;;;;;;;;;;5024031;28;20108;-56
2021/08/24 12:26:20;;;;;;;1.20;0.30;;;;;;;;;;5026901;28;20038;-56
2021/08/24 12:28:47;;;;;;;0.30;0.30;;;;;;;;;;5025173;28;20482;-56
2021/08/24 12:31:22;;;;;;;0.47;0.30;;;;;;;;;;5033367;28;20417;-57
2021/08/24 12:33:49;;;;;;;0.30;0.30;;;;;;;;;;5028272;28;20371;-56
2021/08/24 12:36:19;;;;;;;0.30;0.30;;;;;;;;;;5031161;28;20045;-56
2021/08/24 12:38:50;;;;;;;0.30;0.30;;;;;;;;;;5024251;28;20041;-56
2021/08/24 12:41:45;;;;;;;0.40;0.40;;;;;;;;;;5031440;28;20129;-56
2021/08/24 12:44:11;;;;;;;0.30;0.30;;;;;;;;;;5015977;28;20461;-55
2021/08/24 12:46:58;;;;;;;0.30;0.30;;;;;;;;;;5039664;28;20041;-56
2021/08/24 12:49:29;;;;;;;0.30;0.30;;;;;;;;;;5035660;28;20083;-55
2021/08/24 12:51:56;;;;;;;0.40;0.40;;;;;;;;;;5032414;28;20037;-55
2021/08/24 12:54:28;;;;;;;0.60;0.35;;;;;;;;;;5033308;28;20555;-56
2021/08/24 12:57:13;;;;;;;0.32;0.30;;;;;;;;;;5025405;28;20038;-56
2021/08/24 12:59:42;;;;;;;0.30;0.30;;;;;;;;;;5025763;28;20038;-55
2021/08/24 13:02:15;;;;;;;0.30;0.30;;;;;;;;;;5027219;28;20449;-56
2021/08/24 13:04:47;;;;;;;0.30;0.30;;;;;;;;;;5017300;28;20065;-55
2021/08/24 13:07:40;;;;;;;0.40;0.40;;;;;;;;;;5033719;28;20490;-55
2021/08/24 13:10:14;;;;;;;1.15;0.35;;;;;;;;;;5028667;28;20045;-56
2021/08/24 13:12:42;;;;;;;0.65;0.35;;;;;;;;;;5027460;28;20037;-55
2021/08/24 13:15:30;;;;;;;0.30;0.30;;;;;;;;;;5032581;28;20045;-56
2021/08/24 13:18:08;;;;;;;0.30;0.30;;;;;;;;;;5032711;28;20076;-56
2021/08/24 13:20:38;;;;;;;0.32;0.32;;;;;;;;;;5028994;28;20045;-56
2021/08/24 13:23:14;;;;;;;0.30;0.30;;;;;;;;;;5031913;28;20054;-56
2021/08/24 13:25:47;;;;;;;0.30;0.30;;;;;;;;;;5030833;28;21431;-56
2021/08/24 13:28:15;;;;;;;0.30;0.30;;;;;;;;;;5032202;28;20129;-55
2021/08/24 13:30:47;;;;;;;1.60;0.47;;;;;;;;;;5031744;28;20812;-56
2021/08/24 13:33:17;;;;;;;0.30;0.30;;;;;;;;;;5030539;28;20045;-56
2021/08/24 13:35:44;;;;;;;0.32;0.32;;;;;;;;;;5032828;28;20057;-55
2021/08/24 13:38:31;;;;;;;0.63;0.50;;;;;;;;;;5032284;28;20037;-56
2021/08/24 13:41:13;;;;;;;0.40;0.40;;;;;;;;;;5024866;28;20037;-56
2021/08/24 13:43:44;;;;;;;0.43;0.30;;;;;;;;;;5032223;28;20620;-56
2021/08/24 13:46:11;;;;;;;0.30;0.30;;;;;;;;;;5030557;28;20282;-55
2021/08/24 13:48:38;;;;;;;0.28;0.28;;;;;;;;;;5013863;28;20391;-56
2021/08/24 13:51:10;;;;;;;0.65;0.30;;;;;;;;;;5032429;28;20034;-56
2021/08/24 13:53:50;;;;;;;0.30;0.30;;;;;;;;;;5028906;28;20041;-56
2021/08/24 13:56:27;;;;;;;0.30;0.30;;;;;;;;;;5031186;28;20025;-55
2021/08/24 13:58:54;;;;;;;3.00;0.30;;;;;;;;;;5026698;28;20048;-56
2021/08/24 14:01:23;;;;;;;0.63;0.30;;;;;;;;;;5018514;28;20041;-56
2021/08/24 14:04:09;;;;;;;1.38;0.40;;;;;;;;;;5019547;28;20036;-56
2021/08/24 14:06:39;;;;;;;0.30;0.30;;;;;;;;;;5027146;28;20061;-55
2021/08/24 14:09:37;;;;;;;0.40;0.40;;;;;;;;;;5016095;28;20133;-56
2021/08/24 14:12:06;;;;;;;0.65;0.30;;;;;;;;;;5015257;28;20532;-56
2021/08/24 14:14:35;;;;;;;0.40;0.40;;;;;;;;;;5027669;28;20034;-56
2021/08/24 14:17:03;;;;;;;1.00;0.50;;;;;;;;;;5015441;28;20037;-56
2021/08/24 14:19:31;;;;;;;0.40;0.40;;;;;;;;;;5031256;28;20033;-56
2021/08/24 14:22:08;;;;;;;0.30;0.30;;;;;;;;;;5028629;28;20045;-56
2021/08/24 14:24:36;;;;;;;0.65;0.40;;;;;;;;;;5028969;28;20065;-56
2021/08/24 14:27:03;;;;;;;0.40;0.40;;;;;;;;;;5029742;28;20033;-55
2021/08/24 14:29:31;;;;;;;0.40;0.40;;;;;;;;;;5020451;28;20443;-57
2021/08/24 14:31:59;;;;;;;1.00;0.40;;;;;;;;;;5031523;28;20048;-55
2021/08/24 14:34:28;;;;;;;0.40;0.40;;;;;;;;;;5028442;28;20107;-56
2021/08/24 14:37:06;;;;;;;0.35;0.32;;;;;;;;;;5030368;28;20088;-56
2021/08/24 14:39:39;;;;;;;1.00;0.40;;;;;;;;;;5024151;28;20037;-56
2021/08/24 14:42:08;;;;;;;0.90;0.40;;;;;;;;;;5025997;28;20037;-56
2021/08/24 14:44:40;;;;;;;0.40;0.40;;;;;;;;;;5031153;28;20025;-56
2021/08/24 14:47:11;;;;;;;1.43;0.47;;;;;;;;;;5024847;28;20033;-56
2021/08/24 14:49:40;;;;;;;0.40;0.40;;;;;;;;;;5017975;28;20036;-55
2021/08/24 14:52:12;;;;;;;1.98;0.82;;;;;;;;;;5029609;28;20065;-55
2021/08/24 14:54:39;;;;;;;0.30;0.30;;;;;;;;;;5030908;28;20029;-55
2021/08/24 14:57:24;;;;;;;0.40;0.40;;;;;;;;;;5024484;28;20453;-54
2021/08/24 14:59:51;;;;;;;1.05;0.40;;;;;;;;;;5026623;28;20037;-55
2021/08/24 15:02:19;;;;;;;0.40;0.40;;;;;;;;;;5028050;28;20057;-55
2021/08/24 15:04:46;;;;;;;0.40;0.40;;;;;;;;;;5030229;28;20038;-56